Time Latitude Longitude Accuracy (66% radius in meters) Altitude (meters) Speed (km/hour) Bearing (degrees) Battery (%) GPS flag
10:39:22 60.403215 30.325988 20.25 -10.2 1.9178540706635 171.72999572754 57 0 delete
10:39:11 60.403215 30.325988 20.25 -10.2 1.9178540706635 171.72999572754 57 0 delete
10:38:59 60.403215 30.325988 20.25 -10.2 1.9178540706635 171.72999572754 57 0 delete
10:38:48 60.403215 30.325988 20.25 -10.2 1.9178540706635 171.72999572754 57 0 delete
10:38:37 60.403215 30.325988 20.25 -10.2 1.9178540706635 171.72999572754 57 0 delete
10:38:26 60.403215 30.325988 20.25 -10.2 1.9178540706635 171.72999572754 57 0 delete
10:38:15 60.403215 30.325988 20.25 -10.2 1.9178540706635 171.72999572754 57 0 delete
10:38:03 60.403215 30.325988 20.25 -10.2 1.9178540706635 171.72999572754 57 0 delete
10:37:50 60.403215 30.325988 20.25 -10.2 1.9178540706635 171.72999572754 57 0 delete
10:37:39 60.403215 30.325988 20.25 -10.2 1.9178540706635 171.72999572754 57 0 delete
10:37:27 60.403215 30.325988 20.25 -10.2 1.9178540706635 171.72999572754 57 0 delete
10:37:16 60.403215 30.325988 20.25 -10.2 1.9178540706635 171.72999572754 57 0 delete
10:37:05 60.403215 30.325988 20.25 -10.2 1.9178540706635 171.72999572754 57 0 delete
10:36:55 60.403215 30.325988 20.25 -10.2 1.9178540706635 171.72999572754 57 0 delete
10:36:44 60.403215 30.325988 20.25 -10.2 1.9178540706635 171.72999572754 57 0 delete
10:36:33 60.403215 30.325988 20.25 -10.2 1.9178540706635 171.72999572754 57 0 delete
10:36:21 60.403215 30.325988 20.25 -10.2 1.9178540706635 171.72999572754 57 0 delete
09:36:05 60.403258 30.326038 17 -9.5 0 171.72999572754 57 1 delete
09:35:58 60.403260 30.326052 17 -9.6 0 171.72999572754 57 1 delete
09:35:46 60.403253 30.326033 15 -12.9 0.056558698415756 171.72999572754 57 1 delete
09:35:42 60.403215 30.325988 20.25 -10.2 1.9178540706635 171.72999572754 57 1 delete
09:35:35 60.403343 30.325978 18 -9.5 1.3008500337601 288.60000610352 57 1 delete
09:35:24 60.403342 30.325968 17 -13.7 0 346.14999389648 57 1 delete
09:35:22 60.403335 30.325952 11 -10.8 0 346.14999389648 57 1 delete
09:35:13 60.403323 30.325903 17 -0.4 1.4242508411407 346.14999389648 57 1 delete
09:35:02 60.403335 30.325853 12 -6.3 0 266.45001220703 57 1 delete
09:34:51 60.403337 30.325818 24.25 -3 0 266.45001220703 57 1 delete
09:34:39 60.403273 30.325728 17 3.5 0 266.45001220703 57 1 delete
09:34:33 60.403278 30.325807 9 3.4 0.16967611014843 266.45001220703 57 1 delete
09:34:28 60.403295 30.325990 8 1.1 1.0231982469559 266.25 57 1 delete
09:34:20 60.403265 30.326163 8 5.6 1.0848985910416 250.2200012207 57 1 delete
09:34:17 60.403252 30.326223 8 3.4 0.6992712020874 271.44000244141 57 1 delete
09:34:11 60.403182 30.326235 8 3.6 0.74554651975632 271.44000244141 57 1 delete
09:34:05 60.403102 30.326237 8 0.7 0.82781368494034 260.04998779297 57 1 delete
09:34:03 60.403083 30.326248 8 1.9 0.73012137413025 260.04998779297 57 1 delete
09:33:53 60.403002 30.326313 8 14.8 0.64785420894623 266.89001464844 57 1 delete
09:33:51 60.403007 30.326355 8 14.9 0.6324291229248 266.89001464844 57 1 delete
09:33:43 60.403025 30.326535 8 23.7 0.66842097043991 269.5299987793 57 1 delete
09:33:41 60.403015 30.326570 8 26.1 1.0283399820328 269.5299987793 57 1 delete
09:33:32 60.402973 30.326703 8 23.2 0.71983796358109 258.75 57 1 delete
09:33:31 60.402968 30.326718 8 22.8 0.84323877096176 258.75 57 1 delete
09:33:20 60.402922 30.326738 8 20.6 1.0283399820328 253.69000244141 57 1 delete
09:33:09 60.402938 30.326838 8 26.5 0.67870444059372 293.73001098633 57 1 delete
09:33:05 60.402937 30.326885 8 25.5 0.79696345329285 293.73001098633 57 1 delete
09:32:58 60.402925 30.326932 8 29.1 0.6272873878479 303.70999145508 57 1 delete
09:32:47 60.402917 30.327035 8 27 0 303.70999145508 57 1 delete
09:32:36 60.402913 30.327017 8 25.7 0 303.70999145508 57 1 delete
09:32:26 60.402880 30.327035 10 27.9 1.8150200843811 303.70999145508 57 1 delete
09:32:25 60.402838 30.327077 8 28.4 2.874210357666 315.91000366211 57 1 delete
09:32:23 60.402798 30.327192 8 30.4 2.9050605297089 323.57000732422 57 1 delete